Latest Weather Observations for Essendon Airport

IDV60901

Issued at 4:31 am EDT Sunday 1 March 2015 (issued every 10 minutes, with the page automatically refreshed every 10 minutes)

About weather observations | Map of Melbourne area stations | Latest observations for Melbourne area | Other Formats
Station Details ID: 086038 Name: ESSENDON AIRPORT Lat: -37.73 Lon: 144.91 Height: 78.4 m
Data from the previous 72 hours. | See also: Recent months at Essendon Airport
Date/Time
EDT
Tmp

°C
App
Tmp
°C
Dew
Point
°C
Rel
Hum
%
Delta-T

°C
Wind Press
QNH
hPa
Press
MSL
hPa
Rain
since
9 am
mm
Dir
 
Spd
km/h
Gust
km/h
Spd
kts
Gust
kts
01/04:30am 15.4 13.0 14.4 94 0.6 WSW 20 28 11 15 1007.4 1007.2 17.6
01/04:11am 14.9 12.7 14.4 97 0.3 WSW 19 26 10 14 1007.2 1006.9 17.4
01/04:00am 15.0 12.8 14.5 97 0.3 SW 19 26 10 14 1007.2 1006.9 17.4
01/03:30am 15.3 10.8 14.8 97 0.3 SW 32 41 17 22 1006.9 1006.6 17.4
01/03:09am 16.2 12.8 15.9 98 0.2 SSW 28 46 15 25 1006.5 1006.2 17.2
01/03:00am 16.1 12.6 15.6 97 0.3 SW 28 44 15 24 1006.4 1006.1 17.0
01/02:30am 16.4 12.7 15.9 97 0.3 SW 30 39 16 21 1006.4 1006.1 16.4
01/02:00am 17.7 16.6 17.2 97 0.3 SSW 19 24 10 13 1006.2 1005.9 15.4
01/01:30am 18.3 18.2 17.8 97 0.3 WSW 15 22 8 12 1005.9 1005.6 14.8
01/01:24am 18.5 18.8 18.0 97 0.3 SW 13 17 7 9 1005.8 1005.5 14.8
01/01:00am 18.8 19.9 18.1 96 0.4 SW 9 13 5 7 1005.7 1005.4 13.8
01/12:30am 18.7 20.4 18.0 96 0.4 NNE 6 7 3 4 1005.7 1005.4 13.8
 
Date/Time
EDT
Tmp

°C
App
Tmp
°C
Dew
Point
°C
Rel
Hum
%
Delta-T

°C
Wind Press
QNH
hPa
Press
MSL
hPa
Rain
since
9 am
mm
Dir
 
Spd
km/h
Gust
km/h
Spd
kts
Gust
kts
28/11:30pm 18.8 20.3 18.1 96 0.4 NE 7 11 4 6 1005.9 1005.6 13.2
28/11:00pm 18.9 20.1 18.2 96 0.4 NE 9 13 5 7 1006.2 1005.9 12.4
28/10:30pm 19.1 20.7 18.3 95 0.5 NW 7 13 4 7 1007.0 1006.7 10.0
28/10:00pm 18.9 19.2 17.9 94 0.6 WSW 13 22 7 12 1006.4 1006.1 7.4
28/09:30pm 19.1 18.0 17.8 92 0.8 SW 20 26 11 14 1005.8 1005.5 4.6
28/09:00pm 19.5 16.2 18.0 91 0.9 WSW 32 39 17 21 1005.3 1005.0 3.0
28/08:46pm 19.9 13.5 17.7 87 1.4 WSW 48 67 26 36 1005.3 1005.0 2.2
28/08:35pm 20.2 10.6 17.8 86 1.5 WSW 65 89 35 48 1004.8 1004.5 1.6
28/08:30pm 20.7 11.0 17.5 82 2.0 W 65 95 35 51 1004.1 1003.8 1.0
28/08:27pm 20.7 13.3 17.1 80 2.2 WNW 52 95 28 51 1003.1 1002.8 0.4
28/08:26pm 21.0 14.6 16.8 77 2.6 WNW 46 95 25 51 1002.6 1002.3 0.2
28/08:24pm 24.5 20.5 16.2 60 5.1 NW 32 95 17 51 1002.1 1001.8 0.0
28/08:23pm 28.2 24.4 13.7 41 8.7 NNW 26 72 14 39 1002.2 1001.9 0.0
28/08:22pm 30.3 26.3 10.3 29 11.4 NNW 22 57 12 31 1001.8 1001.6 0.0
28/08:21pm 30.2 26.5 10.2 29 11.4 N 20 48 11 26 1000.9 1000.7 0.0
28/08:00pm 30.5 26.0 9.9 28 11.8 NNE 24 33 13 18 998.2 998.0 0.0
28/07:30pm 30.3 26.5 9.8 28 11.7 NNE 20 30 11 16 998.7 998.5 0.0
28/07:00pm 31.3 26.7 9.5 26 12.4 N 24 37 13 20 999.3 999.1 0.0
28/06:30pm 32.1 27.9 9.6 25 12.8 N 22 32 12 17 999.8 999.6 0.0
28/05:30pm 32.4 28.2 11.0 27 12.5 N 24 37 13 20 1001.0 1000.8 0.0
28/05:00pm 31.6 27.3 10.9 28 12.0 N 24 35 13 19 1001.5 1001.3 0.0
28/04:30pm 30.6 26.4 11.1 30 11.3 N 24 35 13 19 1002.0 1001.7 0.0
28/04:00pm 32.7 28.3 11.8 28 12.4 N 26 35 14 19 1002.2 1001.9 0.0
28/03:30pm 30.1 26.3 11.1 31 11.0 NNE 22 33 12 18 1002.5 1002.2 0.0
28/03:00pm 28.9 24.6 10.6 32 10.5 N 24 35 13 19 1003.0 1002.7 0.0
28/02:30pm 28.4 23.4 11.0 34 10.0 N 28 35 15 19 1003.3 1003.0 0.0
28/02:00pm 27.4 22.9 11.4 37 9.2 N 26 41 14 22 1003.7 1003.4 0.0
28/01:30pm 26.3 21.5 11.6 40 8.4 N 28 43 15 23 1004.5 1004.2 0.0
28/01:00pm 25.2 20.6 12.4 45 7.4 N 28 43 15 23 1005.1 1004.8 0.0
28/12:30pm 24.4 20.5 12.0 46 7.1 N 24 33 13 18 1005.7 1005.4 0.0
28/12:00pm 23.3 19.3 11.7 48 6.6 N 24 35 13 19 1005.8 1005.5 0.0
28/11:30am 23.0 19.4 12.0 50 6.2 N 22 33 12 18 1005.9 1005.6 0.0
28/11:00am 22.7 19.5 12.0 50 6.1 N 20 32 11 17 1006.1 1005.8 0.0
28/10:30am 23.2 21.4 15.5 62 4.6 N 19 24 10 13 1006.0 1005.7 0.0
28/10:00am 22.0 21.1 14.9 64 4.2 N 13 20 7 11 1006.3 1006.0 0.0
28/09:30am 20.7 21.0 14.4 67 3.7 ESE 6 7 3 4 1007.1 1006.8 0.0
28/09:00am 20.5 19.7 13.9 66 3.8 E 11 13 6 7 1006.8 1006.5 0.0
28/08:30am 19.9 19.5 14.0 69 3.4 NE 9 11 5 6 1006.5 1006.2 0.0
28/08:00am 19.6 18.7 13.8 69 3.3 NE 11 15 6 8 1006.3 1006.0 0.0
28/07:30am 18.5 17.8 14.4 77 2.4 NNE 11 13 6 7 1006.3 1006.0 0.0
28/07:00am 17.5 16.8 14.2 81 1.9 NE 11 13 6 7 1006.4 1006.1 0.0
28/06:30am 17.0 16.6 14.1 83 1.7 NE 9 9 5 5 1006.4 1006.1 0.0
28/05:30am 17.7 16.2 14.2 80 2.0 NNW 15 22 8 12 1006.6 1006.3 0.0
28/05:00am 17.2 16.8 14.1 82 1.8 E 9 15 5 8 1005.6 1005.3 0.0
28/04:30am 17.2 16.9 14.3 83 1.7 ENE 9 11 5 6 1006.5 1006.2 0.0
28/04:00am 17.3 17.3 14.2 82 1.8 ENE 7 9 4 5 1007.4 1007.2 0.0
28/03:30am 17.3 17.5 14.2 82 1.8 W 6 9 3 5 1008.6 1008.4 0.0
28/03:00am 17.5 17.5 14.2 81 1.9 NNW 7 11 4 6 1008.7 1008.5 0.0
28/02:30am 17.3 18.4 13.6 79 2.1 CALM 0 0 0 0 1009.0 1008.8 0.0
28/02:00am 17.9 19.1 13.8 77 2.3 CALM 0 4 0 2 1009.6 1009.4 0.0
28/01:30am 17.9 17.9 14.2 79 2.1 S 7 11 4 6 1009.7 1009.5 0.0
28/01:00am 18.1 17.7 14.2 78 2.2 S 9 11 5 6 1010.2 1010.0 0.0
28/12:30am 18.3 17.7 14.6 79 2.1 S 11 15 6 8 1010.4 1010.2 0.0
28/12:00am 18.3 18.1 14.6 79 2.2 SSW 9 11 5 6 1010.4 1010.2 0.0
 
Date/Time
EDT
Tmp

°C
App
Tmp
°C
Dew
Point
°C
Rel
Hum
%
Delta-T

°C
Wind Press
QNH
hPa
Press
MSL
hPa
Rain
since
9 am
mm
Dir
 
Spd
km/h
Gust
km/h
Spd
kts
Gust
kts
27/11:30pm 18.5 17.8 14.2 76 2.5 SSE 11 13 6 7 1010.8 1010.6 0.0
27/11:00pm 18.5 17.4 14.4 77 2.4 SSW 13 17 7 9 1011.1 1010.9 0.0
27/10:30pm 18.7 17.0 14.8 78 2.3 S 17 20 9 11 1011.1 1010.9 0.0
27/10:00pm 18.7 17.3 14.6 77 2.4 S 15 19 8 10 1010.8 1010.6 0.0
27/09:30pm 18.8 16.7 14.7 77 2.4 S 19 24 10 13 1010.6 1010.4 0.0
27/09:00pm 19.1 16.9 14.8 76 2.5 S 20 30 11 16 1010.4 1010.2 0.0
27/08:30pm 19.8 17.2 14.8 73 2.9 S 22 32 12 17 1010.1 1009.9 0.0
27/08:00pm 20.7 18.7 15.0 70 3.4 SW 19 24 10 13 1009.4 1009.2 0.0
27/07:30pm 21.0 20.1 15.8 72 3.1 SSW 15 20 8 11 1009.1 1008.9 0.0
27/07:00pm 21.2 19.9 15.7 71 3.3 SSW 17 24 9 13 1008.7 1008.5 0.0
27/06:30pm 21.6 19.2 14.5 64 4.2 S 20 26 11 14 1008.8 1008.6 0.0
27/06:00pm 22.1 19.3 13.2 57 5.1 S 20 26 11 14 1009.0 1008.8 0.0
27/05:30pm 22.7 19.4 11.7 49 6.2 SSE 20 28 11 15 1008.8 1008.6 0.0
27/05:00pm 22.9 19.1 11.0 47 6.6 S 22 28 12 15 1008.8 1008.6 0.0
27/04:30pm 24.1 21.2 12.4 48 6.7 S 19 26 10 14 1009.1 1008.9 0.0
27/04:00pm 24.1 21.7 12.7 49 6.6 SSW 17 26 9 14 1008.9 1008.7 0.0
27/03:30pm 24.9 23.2 13.5 49 6.7 S 15 20 8 11 1009.2 1009.0 0.0
27/03:00pm 24.4 21.7 13.0 49 6.6 SSW 19 26 10 14 1009.6 1009.4 0.0
27/02:30pm 24.3 22.8 13.2 50 6.5 SE 13 26 7 14 1009.5 1009.3 0.0
27/02:00pm 23.8 23.1 13.1 51 6.2 SW 9 20 5 11 1010.1 1009.9 0.0
27/01:30pm 23.8 22.1 12.4 48 6.5 SSW 13 17 7 9 1010.1 1009.9 0.0
27/01:00pm 23.5 22.3 13.9 55 5.6 SSW 13 19 7 10 1010.4 1010.2 0.0
27/12:30pm 21.7 20.8 12.5 56 5.2 SE 9 15 5 8 1010.9 1010.7 0.0
27/12:00pm 20.9 19.7 12.8 60 4.6 SSE 11 15 6 8 1011.0 1010.8 0.0
27/11:30am 22.1 21.4 13.2 57 5.1 SSE 9 15 5 8 1011.4 1011.2 0.0
27/11:00am 19.9 19.2 13.1 65 3.9 SW 9 17 5 9 1011.7 1011.5 0.0
27/10:30am 20.1 20.1 13.6 66 3.7 SSE 6 13 3 7 1011.5 1011.3 0.0
27/10:00am 20.2 19.2 13.4 65 3.9 E 11 17 6 9 1011.3 1011.1 0.0
27/09:30am 20.2 20.1 13.9 67 3.6 ESE 7 11 4 6 1011.3 1011.1 0.0
27/09:00am 18.6 19.3 14.5 77 2.4 ESE 4 7 2 4 1011.2 1011.0 0.0
27/08:30am 17.1 17.7 15.4 90 1.0 N 6 7 3 4 1011.1 1010.9 0.0
27/08:00am 15.3 15.6 14.5 95 0.5 NNW 6 6 3 3 1011.1 1010.9 0.0
27/07:30am 13.4 12.9 12.6 95 0.4 NNW 7 7 4 4 1010.6 1010.4 0.0
27/07:00am 13.5 13.0 12.6 94 0.5 N 7 9 4 5 1010.3 1010.1 0.0
27/06:30am 13.7 12.8 12.6 93 0.6 N 9 11 5 6 1010.0 1009.8 0.0
27/06:00am 13.9 13.1 12.8 93 0.6 NW 9 13 5 7 1009.9 1009.7 0.0
27/05:30am 14.5 15.5 13.2 92 0.7 CALM 0 6 0 3 1010.0 1009.8 0.0
27/05:00am 14.4 15.3 12.8 90 0.9 CALM 0 0 0 0 1010.0 1009.8 0.0
27/04:30am 14.8 15.7 13.0 89 1.0 CALM 0 0 0 0 1010.0 1009.8 0.0
27/04:00am 15.0 15.9 13.0 88 1.1 CALM 0 0 0 0 1010.1 1009.9 0.0
27/03:30am 15.7 16.8 13.5 87 1.2 CALM 0 0 0 0 1010.9 1010.7 0.0
27/03:00am 15.6 16.7 13.4 87 1.2 CALM 0 0 0 0 1011.0 1010.8 0.0
27/02:30am 15.8 16.5 13.3 85 1.4 E 2 6 1 3 1010.9 1010.7 0.0
27/02:00am 15.6 14.8 12.9 84 1.5 E 9 11 5 6 1010.8 1010.6 0.0
27/01:30am 16.3 15.7 13.4 83 1.6 ESE 9 11 5 6 1011.2 1011.0 0.0
27/01:00am 16.1 15.6 12.8 81 1.8 SE 7 7 4 4 1011.4 1011.2 0.0
27/12:30am 17.2 17.0 13.7 80 2.0 SSE 7 9 4 5 1011.7 1011.5 0.0
27/12:00am 17.5 16.6 13.6 78 2.2 S 11 15 6 8 1011.8 1011.6 0.0
 
Date/Time
EDT
Tmp

°C
App
Tmp
°C
Dew
Point
°C
Rel
Hum
%
Delta-T

°C
Wind Press
QNH
hPa
Press
MSL
hPa
Rain
since
9 am
mm
Dir
 
Spd
km/h
Gust
km/h
Spd
kts
Gust
kts
26/11:30pm 18.2 16.1 13.7 75 2.6 S 17 22 9 12 1011.7 1011.5 0.0
26/11:00pm 18.2 16.3 14.3 78 2.3 S 17 20 9 11 1011.7 1011.5 0.0
26/10:30pm 18.3 16.0 14.2 77 2.4 S 19 24 10 13 1011.7 1011.5 0.0
26/10:00pm 18.4 17.1 14.7 79 2.2 S 15 20 8 11 1011.7 1011.5 0.0
26/09:30pm 18.5 16.4 14.6 78 2.3 SSW 19 24 10 13 1011.7 1011.5 0.0
26/09:00pm 18.6 15.8 14.3 76 2.5 SSW 22 28 12 15 1011.4 1011.2 0.0
26/08:30pm 18.8 16.2 13.9 73 2.8 SSW 20 26 11 14 1010.8 1010.6 0.0
26/08:00pm 19.6 16.9 13.5 68 3.5 S 20 26 11 14 1010.3 1010.1 0.0
26/07:30pm 19.9 17.5 14.5 71 3.2 SSW 20 28 11 15 1009.9 1009.7 0.0
26/07:00pm 20.5 18.4 14.6 69 3.5 S 19 26 10 14 1009.7 1009.5 0.0
26/06:30pm 21.2 18.5 14.6 66 3.9 S 22 28 12 15 1009.4 1009.2 0.0
26/06:00pm 21.9 19.7 14.5 63 4.4 S 19 24 10 13 1009.4 1009.2 0.0
26/05:30pm 22.7 20.5 14.5 60 4.8 S 19 28 10 15 1009.3 1009.1 0.0
26/05:00pm 23.0 20.8 14.3 58 5.1 SSE 19 28 10 15 1009.4 1009.2 0.0
26/04:30pm 23.2 20.6 13.9 56 5.5 S 20 28 11 15 1009.5 1009.3 0.0
26/04:00pm 23.2 20.7 14.2 57 5.3 S 20 30 11 16 1009.6 1009.4 0.0
26/03:30pm 23.0 20.6 14.3 58 5.1 SSE 20 28 11 15 1009.8 1009.6 0.0
26/03:00pm 22.1 19.6 14.2 61 4.6 SSE 20 28 11 15 1010.1 1009.9 0.0
26/02:30pm 22.7 20.9 14.5 60 4.8 SSE 17 28 9 15 1010.3 1010.1 0.0
26/02:00pm 22.6 20.4 15.9 66 4.1 S 22 32 12 17 1010.5 1010.3 0.0
26/01:30pm 22.6 20.5 15.2 63 4.4 SSE 20 28 11 15 1010.6 1010.4 0.0
26/01:00pm 22.7 20.7 15.5 64 4.3 S 20 30 11 16 1010.8 1010.6 0.0
26/12:30pm 22.2 19.8 15.5 66 4.0 S 22 28 12 15 1010.9 1010.7 0.0
26/12:00pm 21.6 20.2 14.5 64 4.2 SSW 15 22 8 12 1011.0 1010.8 0.0
26/11:30am 22.0 21.2 15.1 65 4.1 SSW 13 20 7 11 1011.2 1011.0 0.0
26/11:00am 20.7 19.7 14.6 68 3.6 SSW 13 19 7 10 1011.2 1011.0 0.0
26/10:30am 20.0 19.1 14.8 72 3.1 SW 13 20 7 11 1011.2 1011.0 0.0
26/10:00am 18.6 17.2 14.5 77 2.4 SW 15 20 8 11 1011.2 1011.0 0.0
26/09:30am 18.1 17.1 14.6 80 2.0 W 13 17 7 9 1010.9 1010.7 0.0
26/09:00am 17.2 15.7 14.1 82 1.8 WSW 15 19 8 10 1010.9 1010.7 0.0
26/08:30am 16.9 15.4 14.2 84 1.5 WSW 15 19 8 10 1010.6 1010.4 0.0
26/08:00am 16.7 14.4 14.2 85 1.4 WSW 19 26 10 14 1010.7 1010.5 0.0
26/07:30am 16.9 15.9 14.5 86 1.4 WSW 13 17 7 9 1010.3 1010.1 0.0
26/07:00am 17.0 16.4 14.6 86 1.4 WSW 11 17 6 9 1009.8 1009.6 0.0
26/06:30am 16.7 16.9 14.7 88 1.2 W 7 11 4 6 1009.4 1009.2 0.0
26/06:00am 16.5 16.9 14.7 89 1.0 NW 6 9 3 5 1009.1 1008.9 0.0
26/05:30am 16.6 16.4 14.8 89 1.0 WNW 9 13 5 7 1009.0 1008.8 0.0
26/05:00am 16.3 16.5 14.3 88 1.1 WNW 6 7 3 4 1008.7 1008.5 0.0

Latest Capital City Observations: Canberra | Sydney | Melbourne | Brisbane | Adelaide | Perth | Hobart | Darwin

Other Formats:

Comma delimited format used in spreadsheet applications
http://www.bom.gov.au/fwo/IDV60901/IDV60901.95866.axf

JavaScript Object Notation format (JSON) in row-major order
http://www.bom.gov.au/fwo/IDV60901/IDV60901.95866.json